createdAt,value
2018-07-15T04:10:23.050Z,84.88
2018-07-15T04:10:48.551Z,84.98
2018-07-15T04:11:14.047Z,84.79
2018-07-15T04:11:39.569Z,84.88
2018-07-15T04:12:05.086Z,84.79
2018-07-15T04:12:30.579Z,84.69
2018-07-15T04:12:56.075Z,84.98
2018-07-15T04:13:21.579Z,84.79
2018-07-15T04:13:47.079Z,84.88
2018-07-15T04:14:12.610Z,84.79
2018-07-15T04:14:38.119Z,84.79
2018-07-15T04:15:03.617Z,85.08
2018-07-15T04:15:29.091Z,85.17
2018-07-15T04:15:54.573Z,84.88
2018-07-15T04:16:20.141Z,85.17
2018-07-15T04:16:45.584Z,85.46
2018-07-15T04:17:11.070Z,84.88
2018-07-15T04:17:36.552Z,85.27
2018-07-15T04:18:02.039Z,85.17
2018-07-15T04:18:27.559Z,84.98
2018-07-15T04:18:53.018Z,84.98
2018-07-15T04:19:18.498Z,84.98
2018-07-15T04:19:43.983Z,84.98
2018-07-15T04:20:09.501Z,85.08
2018-07-15T04:20:35.008Z,84.69
2018-07-15T04:21:00.534Z,85.36
2018-07-15T04:21:26.023Z,84.31
2018-07-15T04:21:51.635Z,84.59
2018-07-15T04:22:17.140Z,84.98
2018-07-15T04:22:42.614Z,84.41
2018-07-15T04:23:08.104Z,85.17
2018-07-15T04:23:33.617Z,84.98
2018-07-15T04:23:59.111Z,85.08
2018-07-15T04:24:24.578Z,85.17
2018-07-15T04:24:50.049Z,84.98
2018-07-15T04:25:15.537Z,84.69
2018-07-15T04:25:41.038Z,84.88
2018-07-15T04:26:06.804Z,84.88
2018-07-15T04:26:32.403Z,85.08
2018-07-15T04:26:57.816Z,84.98
2018-07-15T04:27:23.337Z,84.88
2018-07-15T04:27:48.834Z,84.69
2018-07-15T04:28:14.361Z,84.69
2018-07-15T04:28:39.863Z,85.17
2018-07-15T04:29:05.332Z,85.17
2018-07-15T04:29:30.818Z,84.41
2018-07-15T04:29:56.284Z,85.36
2018-07-15T04:30:21.781Z,84.98
2018-07-15T04:30:47.287Z,84.98
2018-07-15T04:31:12.806Z,84.98
2018-07-15T04:31:38.286Z,84.59
2018-07-15T04:32:03.786Z,84.79
2018-07-15T04:32:29.268Z,84.69
2018-07-15T04:32:54.770Z,84.98
2018-07-15T04:33:20.254Z,84.88
2018-07-15T04:33:45.869Z,84.98
2018-07-15T04:34:11.468Z,85.36
2018-07-15T04:34:37.010Z,84.22
2018-07-15T04:35:02.540Z,84.5
2018-07-15T04:35:28.062Z,84.59
2018-07-15T04:35:53.525Z,84.88
2018-07-15T04:36:19.048Z,84.92
2018-07-15T04:36:44.551Z,84.83
2018-07-15T04:37:10.026Z,85.02
2018-07-15T04:37:35.511Z,85.02
2018-07-15T04:38:01.143Z,84.92
2018-07-15T04:38:26.562Z,84.64
2018-07-15T04:38:52.045Z,84.55
2018-07-15T04:39:17.546Z,84.74
2018-07-15T04:39:43.025Z,84.92
2018-07-15T04:40:08.492Z,83.97
2018-07-15T04:40:34.012Z,84.16
2018-07-15T04:40:59.477Z,83.78
2018-07-15T04:41:25.012Z,83.87
2018-07-15T04:41:50.520Z,84.06
2018-07-15T04:42:16.007Z,83.59
2018-07-15T04:42:41.487Z,83.39
2018-07-15T04:43:06.998Z,83.92
2018-07-15T04:43:32.481Z,83.44
2018-07-15T04:43:58.104Z,82.96
2018-07-15T04:44:23.510Z,82.67
2018-07-15T04:44:49.116Z,82.23
2018-07-15T04:45:14.542Z,81.56
2018-07-15T04:46:18.160Z,81.18
2018-07-15T04:46:43.682Z,80.51
2018-07-15T04:47:09.179Z,79.83
2018-07-15T04:47:34.651Z,79.97
2018-07-15T04:48:00.132Z,79.88
2018-07-15T04:49:03.801Z,78.72
2018-07-15T04:49:29.294Z,78.77
2018-07-15T04:49:54.794Z,78.47
2018-07-15T04:50:20.271Z,78.28
2018-07-15T04:50:45.783Z,78.19
2018-07-15T04:51:11.283Z,77.8
2018-07-15T04:51:36.776Z,77.51
2018-07-15T04:52:02.266Z,77.61
2018-07-15T04:52:27.754Z,77.23
2018-07-15T04:52:53.236Z,77.23
2018-07-15T04:53:18.757Z,77.42
2018-07-15T04:53:44.251Z,76.75
2018-07-15T04:54:09.754Z,76.75
2018-07-15T04:54:35.357Z,76.21
2018-07-15T04:55:00.844Z,76.31
2018-07-15T04:55:26.318Z,76.69
2018-07-15T04:55:51.817Z,76.31
2018-07-15T04:56:17.284Z,76.12
2018-07-15T04:56:42.776Z,76.12
2018-07-15T04:57:08.282Z,75.54
2018-07-15T04:57:33.778Z,75.63
2018-07-15T04:57:59.243Z,75.82
2018-07-15T04:58:24.721Z,75.73
2018-07-15T04:58:50.236Z,75.06
2018-07-15T04:59:15.723Z,75.25
2018-07-15T04:59:41.215Z,75.06
2018-07-15T05:00:06.701Z,75.54
2018-07-15T05:00:32.200Z,74.68
2018-07-15T05:00:57.689Z,74.77
2018-07-15T05:01:23.162Z,75.35
2018-07-15T05:01:48.658Z,74.77
2018-07-15T05:02:14.166Z,75.54
2018-07-15T05:02:39.667Z,74.58
2018-07-15T05:03:05.119Z,74.58
2018-07-15T05:03:30.613Z,74.87
2018-07-15T05:03:56.096Z,74.77
2018-07-15T05:04:21.608Z,74.71
2018-07-15T05:04:47.101Z,74.96
2018-07-15T05:05:12.590Z,74.39
2018-07-15T05:05:38.080Z,74.39
2018-07-15T05:06:03.571Z,74.39
2018-07-15T05:06:29.035Z,74.43
2018-07-15T05:06:54.516Z,74.43
2018-07-15T05:07:19.993Z,74.58
2018-07-15T05:07:45.476Z,74.9
2018-07-15T05:08:10.976Z,74.9
2018-07-15T05:08:36.465Z,75.29
2018-07-15T05:09:01.939Z,74.43
2018-07-15T05:09:27.498Z,74.13
2018-07-15T05:09:52.980Z,74.23
2018-07-15T05:10:18.500Z,73.66
2018-07-15T05:10:43.988Z,73.85
2018-07-15T05:11:09.500Z,73.56
2018-07-15T05:11:35.017Z,73.94
2018-07-15T05:12:00.535Z,73.85
2018-07-15T05:12:26.039Z,73.56
2018-07-15T05:12:51.559Z,74.19
2018-07-15T05:13:17.059Z,73.85
2018-07-15T05:13:42.553Z,74.1
2018-07-15T05:14:08.037Z,73.85
2018-07-15T05:14:33.523Z,74.13
2018-07-15T05:14:59.016Z,73.94
2018-07-15T05:15:24.522Z,74.23
2018-07-15T05:15:50.023Z,73.75
2018-07-15T05:16:15.514Z,73.66
2018-07-15T05:16:41.006Z,73.75
2018-07-15T05:17:06.494Z,73.75
2018-07-15T05:17:32.082Z,74.13
2018-07-15T05:17:57.694Z,73.85
2018-07-15T05:18:23.280Z,73.56
2018-07-15T05:18:48.716Z,73.37
2018-07-15T05:19:14.193Z,73.75
2018-07-15T05:19:39.655Z,73.56
2018-07-15T05:20:05.124Z,73.56
2018-07-15T05:20:30.593Z,73.37
2018-07-15T05:21:29.215Z,73.66
2018-07-15T05:21:54.693Z,73.27
2018-07-15T05:22:20.186Z,73.18
2018-07-15T05:22:45.686Z,73.18
2018-07-15T05:23:11.180Z,72.99
2018-07-15T05:23:36.668Z,72.89
2018-07-15T05:24:02.159Z,73.27
2018-07-15T05:24:27.623Z,73.27
2018-07-15T05:24:53.090Z,73.56
2018-07-15T05:25:18.563Z,73.66
2018-07-15T05:25:43.983Z,73.46
2018-07-15T05:26:09.488Z,73.37
2018-07-15T05:26:34.921Z,73.56
2018-07-15T05:27:00.374Z,73.56
2018-07-15T05:27:25.875Z,73.37
2018-07-15T05:27:51.357Z,73.37
2018-07-15T05:28:16.796Z,73.56
2018-07-15T05:28:42.275Z,73.46
2018-07-15T05:29:07.825Z,73.66
2018-07-15T05:29:33.258Z,73.56
2018-07-15T05:29:58.696Z,73.37
2018-07-15T05:30:24.359Z,73.56
2018-07-15T05:30:49.865Z,73.66
2018-07-15T05:31:15.334Z,73.94
2018-07-15T05:31:40.857Z,74.13
2018-07-15T05:32:06.361Z,74.23
2018-07-15T05:32:31.847Z,73.66
2018-07-15T05:32:57.340Z,73.5
2018-07-15T05:33:22.823Z,73.6
2018-07-15T05:33:48.298Z,73.41
2018-07-15T05:34:13.800Z,73.5
2018-07-15T05:34:39.298Z,73.41
2018-07-15T05:35:04.878Z,73.5
2018-07-15T05:35:30.308Z,73.02
2018-07-15T05:35:55.820Z,73.21
2018-07-15T05:36:21.312Z,73.41
2018-07-15T05:36:46.815Z,73.5
2018-07-15T05:37:12.317Z,72.83
2018-07-15T05:37:37.805Z,72.64
2018-07-15T05:38:03.303Z,72.64
2018-07-15T05:38:28.787Z,72.54
2018-07-15T05:38:54.267Z,72.64
2018-07-15T05:39:19.783Z,72.25
2018-07-15T05:39:45.265Z,72.44
2018-07-15T05:40:10.763Z,72.06
2018-07-15T05:40:36.276Z,72.09
2018-07-15T05:41:01.792Z,72.19
2018-07-15T05:41:27.320Z,72.16
2018-07-15T05:41:52.838Z,71.29
2018-07-15T05:42:18.339Z,71.52
2018-07-15T05:42:43.821Z,71.04
2018-07-15T05:43:09.347Z,71.29
2018-07-15T05:43:34.821Z,71.33
2018-07-15T05:44:00.309Z,71.33
2018-07-15T05:44:25.964Z,71.52
2018-07-15T05:44:51.350Z,71.04
2018-07-15T05:45:16.831Z,70.84
2018-07-15T05:45:42.335Z,70.84
2018-07-15T05:46:07.825Z,71.14
2018-07-15T05:46:33.295Z,71.23
2018-07-15T05:46:58.810Z,71.33
2018-07-15T05:47:24.329Z,70.75
2018-07-15T05:47:49.822Z,70.94
2018-07-15T05:48:15.327Z,71.33
2018-07-15T05:48:40.807Z,70.84
2018-07-15T05:49:06.283Z,70.94
2018-07-15T05:49:31.793Z,71.33
2018-07-15T05:49:57.259Z,70.94
2018-07-15T05:50:22.779Z,71.52
2018-07-15T05:50:48.271Z,71.52
2018-07-15T05:51:13.750Z,71.52
2018-07-15T05:51:39.276Z,71.52
2018-07-15T05:52:04.796Z,71.42
2018-07-15T05:52:30.306Z,70.56
2018-07-15T05:52:55.826Z,70.27
2018-07-15T05:53:21.342Z,70.65
2018-07-15T05:53:46.881Z,70.37
2018-07-15T05:54:12.485Z,70.17
2018-07-15T05:54:37.987Z,70.27
2018-07-15T05:55:03.483Z,70.75
2018-07-15T05:55:28.971Z,70.37
2018-07-15T05:55:54.476Z,70.65
2018-07-15T05:56:19.970Z,70.65
2018-07-15T05:56:45.521Z,70.88
2018-07-15T05:57:11.017Z,70.88
2018-07-15T05:57:36.509Z,71.08
2018-07-15T05:58:02.062Z,70.3
2018-07-15T05:58:27.579Z,70.3
2018-07-15T05:58:53.037Z,70.21
2018-07-15T05:59:18.558Z,70.21
2018-07-15T05:59:44.036Z,70.3
2018-07-15T06:00:09.494Z,70.21
2018-07-15T06:00:34.970Z,70.01
2018-07-15T06:01:00.510Z,69.92
2018-07-15T06:01:26.072Z,69.92
2018-07-15T06:01:51.555Z,69.06
2018-07-15T06:02:17.029Z,69.76
2018-07-15T06:02:42.559Z,68.96
2018-07-15T06:03:08.003Z,68.29
2018-07-15T06:03:33.602Z,68.48
2018-07-15T06:03:58.939Z,68.38
2018-07-15T06:04:24.440Z,68.96
2018-07-15T06:04:49.942Z,69.06
2018-07-15T06:05:15.457Z,69.82
2018-07-15T06:05:40.925Z,69.24
2018-07-15T06:06:06.506Z,69.15
2018-07-15T06:07:20.856Z,69.63
2018-07-15T06:07:45.887Z,69.44
2018-07-15T06:08:11.394Z,69.53
2018-07-15T06:08:36.864Z,69.44
2018-07-15T06:09:02.348Z,68.7
2018-07-15T06:09:27.859Z,69.15
2018-07-15T06:09:53.364Z,68.7
2018-07-15T06:10:18.843Z,69.09
2018-07-15T06:10:44.468Z,68.96
2018-07-15T06:11:09.865Z,69.38
2018-07-15T06:11:35.386Z,69.57
2018-07-15T06:12:00.905Z,69.47
2018-07-15T06:12:26.444Z,68.8
2018-07-15T06:12:51.942Z,68.6
2018-07-15T06:13:17.429Z,69.18
2018-07-15T06:13:42.932Z,68.32
2018-07-15T06:14:08.451Z,67.74
2018-07-15T06:14:33.940Z,67.45
2018-07-15T06:14:59.441Z,67.74
2018-07-15T06:15:24.996Z,68.32
2018-07-15T06:15:50.516Z,68.6
2018-07-15T06:16:15.988Z,68.41
2018-07-15T06:16:41.575Z,68.41
2018-07-15T06:17:07.198Z,68.32
2018-07-15T06:17:32.599Z,67.55
2018-07-15T06:17:58.114Z,67.93
2018-07-15T06:18:23.611Z,67.16
2018-07-15T06:18:49.106Z,67.65
2018-07-15T06:19:14.608Z,67.42
2018-07-15T06:19:40.134Z,67.83
2018-07-15T06:20:05.642Z,67.93
2018-07-15T06:20:31.123Z,67.93
2018-07-15T06:20:56.632Z,67.8
2018-07-15T06:21:22.152Z,67.55
2018-07-15T06:21:47.642Z,67.93
2018-07-15T06:22:13.185Z,68.6
2018-07-15T06:22:38.825Z,68.22
2018-07-15T06:23:04.245Z,68.6
2018-07-15T06:23:29.676Z,68.6
2018-07-15T06:23:55.210Z,68.32
2018-07-15T06:24:20.717Z,68.51
2018-07-15T06:24:46.204Z,68.51
2018-07-15T06:25:11.668Z,68.22
2018-07-15T06:25:37.228Z,67.49
2018-07-15T06:26:02.706Z,67.97
2018-07-15T06:26:28.151Z,67.39
2018-07-15T06:26:53.701Z,67.39
2018-07-15T06:27:19.180Z,67.58
2018-07-15T06:27:44.752Z,67.77
2018-07-15T06:28:10.199Z,67.68
2018-07-15T06:28:35.759Z,67.1
2018-07-15T06:29:01.301Z,67.19
2018-07-15T06:29:26.803Z,66.81
2018-07-15T06:29:52.324Z,66.81
2018-07-15T06:30:17.982Z,66.24
2018-07-15T06:30:43.598Z,66.62
2018-07-15T06:31:09.128Z,66.62
2018-07-15T06:31:34.543Z,66.42
2018-07-15T06:32:00.051Z,66.24
2018-07-15T06:32:25.562Z,66.42
2018-07-15T06:32:51.023Z,66.81
2018-07-15T06:33:16.567Z,66.91
2018-07-15T06:33:42.053Z,66.46
2018-07-15T06:34:07.570Z,66.07
2018-07-15T06:34:33.054Z,65.69
2018-07-15T06:34:58.571Z,65.78
2018-07-15T06:35:24.061Z,65.88
2018-07-15T06:35:49.613Z,66.17
2018-07-15T06:36:15.074Z,65.5
2018-07-15T06:36:40.535Z,65.78
2018-07-15T06:37:06.035Z,65.69
2018-07-15T06:37:31.492Z,65.88
2018-07-15T06:38:40.213Z,66.07
2018-07-15T06:39:06.013Z,65.69
2018-07-15T06:39:31.510Z,65.69
2018-07-15T06:39:57.061Z,65.69
2018-07-15T06:40:22.575Z,65.5
2018-07-15T06:40:48.097Z,65.78
2018-07-15T06:41:13.609Z,65.5
2018-07-15T06:42:28.249Z,65.72
2018-07-15T06:42:53.761Z,65.72
2018-07-15T06:43:19.256Z,65.33
2018-07-15T06:43:44.767Z,65.63
2018-07-15T06:44:10.257Z,65.63
2018-07-15T06:44:35.746Z,65.72
2018-07-15T06:45:01.230Z,65.43
2018-07-15T06:45:26.714Z,65.43
2018-07-15T06:45:52.203Z,66.11
2018-07-15T06:46:17.692Z,65.72
2018-07-15T06:46:43.149Z,65.24
2018-07-15T06:47:08.643Z,64.98
2018-07-15T06:47:34.132Z,64.4
2018-07-15T06:47:59.571Z,64.21
2018-07-15T06:48:25.209Z,64.69
2018-07-15T06:48:50.706Z,64.31
2018-07-15T06:49:16.265Z,64.31
2018-07-15T06:49:41.687Z,63.73
2018-07-15T06:50:07.131Z,64.02
2018-07-15T06:50:32.673Z,63.92
2018-07-15T06:50:58.343Z,63.82
2018-07-15T06:51:23.996Z,64.05
2018-07-15T06:51:49.619Z,64.05
2018-07-15T06:52:15.011Z,63.37
2018-07-15T06:52:40.480Z,63.37
2018-07-15T06:53:05.968Z,62.99
2018-07-15T06:53:31.464Z,62.41
2018-07-15T06:53:57.030Z,62.66
2018-07-15T06:54:22.754Z,62.66
2018-07-15T06:54:48.233Z,63.73
2018-07-15T06:55:51.837Z,63.18
2018-07-15T06:56:17.338Z,62.79
2018-07-15T06:56:42.825Z,62.79
2018-07-15T06:57:36.231Z,61.83
2018-07-15T06:58:01.732Z,62.22
2018-07-15T06:58:27.248Z,62.12
2018-07-15T06:58:52.741Z,62.22
2018-07-15T06:59:18.225Z,62.22
2018-07-15T06:59:43.738Z,62.02
2018-07-15T07:00:09.206Z,61.83
2018-07-15T07:00:34.723Z,62.02
2018-07-15T07:01:00.238Z,62.22
2018-07-15T07:01:25.814Z,62.02
2018-07-15T07:01:51.249Z,62.02
2018-07-15T07:02:16.719Z,61.67
2018-07-15T07:02:42.210Z,61.67
2018-07-15T07:03:07.694Z,61.28
2018-07-15T07:03:33.184Z,60.99
2018-07-15T07:03:58.656Z,60.96
2018-07-15T07:04:24.162Z,61.57
2018-07-15T07:04:49.671Z,61.47
2018-07-15T07:05:15.185Z,61.67
2018-07-15T07:05:40.694Z,60.99
2018-07-15T07:06:06.192Z,60.8
2018-07-15T07:06:31.689Z,60.89
2018-07-15T07:07:30.223Z,61.19
2018-07-15T07:07:55.735Z,61.19
2018-07-15T07:08:21.224Z,61.25
2018-07-15T07:08:46.730Z,61.28
2018-07-15T07:09:12.209Z,61.96
2018-07-15T07:09:37.692Z,61.28
2018-07-15T07:10:03.210Z,61.19
2018-07-15T07:10:28.695Z,61.09
2018-07-15T07:10:54.235Z,61.19
2018-07-15T07:11:19.753Z,61.57
2018-07-15T07:11:45.257Z,61.38
2018-07-15T07:12:10.757Z,61.47
2018-07-15T07:12:36.255Z,61.57
2018-07-15T07:13:01.763Z,61.67
2018-07-15T07:13:27.281Z,61.57
2018-07-15T07:13:52.788Z,61.41
2018-07-15T07:14:18.315Z,60.93
2018-07-15T07:14:43.744Z,60.44
2018-07-15T07:15:09.220Z,60.44
2018-07-15T07:15:34.700Z,60.83
2018-07-15T07:16:00.231Z,59.77
2018-07-15T07:16:25.701Z,59.77
2018-07-15T07:16:51.195Z,59.28
2018-07-15T07:17:16.690Z,59.48
2018-07-15T07:17:42.185Z,59.67
2018-07-15T07:18:07.670Z,59.77
2018-07-15T07:18:33.188Z,58.73
2018-07-15T07:18:58.678Z,58.9
2018-07-15T07:19:24.177Z,58.32
2018-07-15T07:19:49.649Z,59
2018-07-15T07:20:15.154Z,58.51
2018-07-15T07:20:40.739Z,58.32
2018-07-15T07:21:06.199Z,59.38
2018-07-15T07:21:31.698Z,59.19
2018-07-15T07:21:57.192Z,58.51
2018-07-15T07:22:22.675Z,58.7
2018-07-15T07:22:48.196Z,59
2018-07-15T07:23:13.732Z,59.48
2018-07-15T07:23:39.227Z,59.86
2018-07-15T07:24:04.736Z,59.7
2018-07-15T07:24:30.230Z,59.6
2018-07-15T07:24:55.737Z,59.41
2018-07-15T07:25:21.248Z,59.51
2018-07-15T07:25:46.729Z,59.7
2018-07-15T07:26:12.281Z,59.7
2018-07-15T07:26:37.753Z,59.7
2018-07-15T07:27:03.314Z,58.54
2018-07-15T07:27:28.815Z,58.54
2018-07-15T07:27:54.559Z,59.02
2018-07-15T07:28:20.042Z,57.87
2018-07-15T07:28:45.556Z,57.41
2018-07-15T07:29:11.023Z,57.87
2018-07-15T07:29:36.494Z,57.67
2018-07-15T07:30:01.995Z,57.57
2018-07-15T07:30:27.487Z,57.77
2018-07-15T07:30:52.989Z,56.9
2018-07-15T07:31:18.476Z,56.8
2018-07-15T07:31:43.989Z,57.21
2018-07-15T07:32:09.484Z,56.71
2018-07-15T07:32:34.962Z,57.29
2018-07-15T07:33:00.438Z,57.19
2018-07-15T07:33:25.897Z,56.71
2018-07-15T07:33:51.446Z,57.09
2018-07-15T07:34:16.905Z,57.19
2018-07-15T07:34:42.446Z,57.19
2018-07-15T07:35:07.968Z,56.9
2018-07-15T07:35:33.456Z,57.77
2018-07-15T07:35:58.952Z,57.96
2018-07-15T07:36:24.474Z,56.9
2018-07-15T07:36:49.954Z,57.09
2018-07-15T07:37:15.488Z,56.8
2018-07-15T07:37:40.988Z,56.99
2018-07-15T07:38:06.499Z,56.71
2018-07-15T07:38:31.986Z,57.06
2018-07-15T07:38:57.536Z,56.77
2018-07-15T07:39:23.049Z,57.84
2018-07-15T07:39:48.561Z,57.54
2018-07-15T07:40:14.080Z,57.84
2018-07-15T07:40:39.568Z,57.74
2018-07-15T07:41:05.083Z,57.93
2018-07-15T07:41:30.560Z,57.96
2018-07-15T07:41:56.035Z,57.84
2018-07-15T07:42:21.557Z,57.77
2018-07-15T07:42:47.073Z,57.87
2018-07-15T07:43:12.552Z,57.87
2018-07-15T07:43:38.034Z,57.29
2018-07-15T07:44:03.516Z,58.06
2018-07-15T07:44:29.016Z,57.96
2018-07-15T07:44:54.527Z,57.57
2018-07-15T07:45:20.220Z,57.48
2018-07-15T07:45:45.685Z,57.77
2018-07-15T07:46:11.165Z,57.19
2018-07-15T07:46:36.638Z,57.67
2018-07-15T07:47:02.219Z,57.96
2018-07-15T07:47:27.661Z,57.31
2018-07-15T07:47:53.139Z,56.83
2018-07-15T07:48:18.634Z,57.31
2018-07-15T07:48:44.134Z,56.83
2018-07-15T07:49:09.648Z,56.15
2018-07-15T07:49:35.134Z,55.96
2018-07-15T07:50:00.628Z,56.15
2018-07-15T07:50:26.103Z,56.15
2018-07-15T07:50:51.584Z,55.67
2018-07-15T07:51:17.120Z,56.15
2018-07-15T07:51:42.628Z,56.15
2018-07-15T07:52:08.153Z,55.96
2018-07-15T07:52:33.683Z,57.03
2018-07-15T07:52:59.152Z,57.12
2018-07-15T07:53:24.757Z,55.96
2018-07-15T07:53:50.160Z,55.77
2018-07-15T07:54:15.580Z,55.47
2018-07-15T07:54:41.048Z,55.47
2018-07-15T07:55:06.563Z,54.71
2018-07-15T07:56:10.154Z,55.67
2018-07-15T07:56:35.687Z,54.97
2018-07-15T07:57:01.183Z,55.47
2018-07-15T07:57:26.752Z,55.35
2018-07-15T07:57:52.249Z,55.55
2018-07-15T07:58:17.748Z,55.93
2018-07-15T07:58:43.188Z,55.96
2018-07-15T07:59:08.681Z,55.29
2018-07-15T07:59:34.201Z,54.71
2018-07-15T07:59:59.692Z,53.93
2018-07-15T08:00:25.203Z,53.83
2018-07-15T08:00:50.655Z,53.64
2018-07-15T08:01:16.149Z,54.51
2018-07-15T08:01:41.687Z,54.13
2018-07-15T08:02:07.163Z,54.22
2018-07-15T08:02:32.675Z,53.16
2018-07-15T08:02:58.152Z,53.35
2018-07-15T08:03:23.638Z,54.32
2018-07-15T08:04:17.085Z,54.03
2018-07-15T08:04:42.595Z,54.03
2018-07-15T08:05:08.083Z,54.03
2018-07-15T08:05:33.595Z,54.35
2018-07-15T08:05:59.035Z,54.15
2018-07-15T08:06:24.515Z,54.25
2018-07-15T08:06:49.981Z,54.05
2018-07-15T08:07:15.512Z,54.05
2018-07-15T08:07:41.141Z,53.09
2018-07-15T08:08:06.595Z,52.89
2018-07-15T08:08:32.038Z,53.09
2018-07-15T08:08:57.554Z,52.99
2018-07-15T08:09:23.025Z,52.92
2018-07-15T08:09:48.499Z,52.31
2018-07-15T08:10:14.007Z,52.41
2018-07-15T08:10:39.495Z,52.51
2018-07-15T08:11:04.996Z,52.53
2018-07-15T08:11:30.543Z,52.7
2018-07-15T08:11:56.016Z,52.22
2018-07-15T08:12:21.506Z,52.31
2018-07-15T08:12:46.999Z,52.73
2018-07-15T08:13:12.497Z,52.51
2018-07-15T08:13:37.985Z,51.73
2018-07-15T08:14:03.475Z,52.53
2018-07-15T08:14:28.951Z,51.73
2018-07-15T08:14:54.489Z,51.64
2018-07-15T08:15:20.224Z,51.64
2018-07-15T08:15:45.626Z,51.93
2018-07-15T08:16:11.240Z,52.22
2018-07-15T08:16:36.624Z,52.12
2018-07-15T08:17:02.136Z,51.83
2018-07-15T08:17:27.609Z,51.83
2018-07-15T08:17:53.120Z,52.7
2018-07-15T08:18:18.656Z,52.89
2018-07-15T08:18:44.195Z,52.41
2018-07-15T08:19:09.621Z,52.53
2018-07-15T08:19:35.074Z,52.99
2018-07-15T08:20:00.733Z,52.92
2018-07-15T08:20:26.181Z,52.05
2018-07-15T08:20:51.707Z,52.34
2018-07-15T08:21:17.208Z,52.34
2018-07-15T08:21:42.669Z,52.63
2018-07-15T08:22:08.190Z,52.14
2018-07-15T08:22:33.661Z,52.24
2018-07-15T08:22:59.155Z,52.27
2018-07-15T08:23:24.690Z,51.4
2018-07-15T08:23:50.175Z,51.59
2018-07-15T08:24:15.628Z,51.5
2018-07-15T08:24:41.132Z,51.2
2018-07-15T08:25:06.586Z,50.24
2018-07-15T08:25:32.075Z,49.46
2018-07-15T08:25:57.560Z,50.24
2018-07-15T08:26:23.061Z,50.24
2018-07-15T08:26:48.621Z,50.33
2018-07-15T08:27:14.126Z,51.01
2018-07-15T08:27:39.626Z,50.24
2018-07-15T08:28:05.211Z,49.65
2018-07-15T08:28:30.715Z,49.75
2018-07-15T08:28:56.071Z,49.65
2018-07-15T08:29:21.562Z,49.56
2018-07-15T08:29:47.042Z,48.49
2018-07-15T08:30:12.546Z,48.71
2018-07-15T08:30:38.049Z,48.59
2018-07-15T08:31:03.549Z,48.97
2018-07-15T08:31:29.050Z,48.88
2018-07-15T08:31:54.547Z,49.46
2018-07-15T08:32:20.033Z,49.75
2018-07-15T08:32:45.565Z,49.68
2018-07-15T08:33:11.040Z,50.24
2018-07-15T08:33:36.545Z,49.97
2018-07-15T08:34:02.039Z,49.68
2018-07-15T08:34:27.540Z,48.49
2018-07-15T08:34:53.115Z,48.69
2018-07-15T08:35:18.548Z,48.3
2018-07-15T08:35:44.037Z,47.81
2018-07-15T08:36:09.523Z,48.3
2018-07-15T08:36:35.024Z,48.39
2018-07-15T08:37:00.513Z,48.97
2018-07-15T08:37:25.981Z,49.39
2018-07-15T08:37:51.510Z,48.49
2018-07-15T08:38:17.014Z,47.55
2018-07-15T08:38:42.515Z,47.55
2018-07-15T08:39:08.043Z,47.62
2018-07-15T08:39:33.521Z,48.2
2018-07-15T08:39:59.021Z,48.22
2018-07-15T08:40:24.541Z,48.42
2018-07-15T08:40:50.140Z,48.71
2018-07-15T08:41:15.507Z,48.03
2018-07-15T08:41:41.056Z,47.94
2018-07-15T08:42:06.616Z,48.42
2018-07-15T08:42:32.093Z,48.22
2018-07-15T08:42:57.579Z,48.42
2018-07-15T08:43:23.095Z,48.42
2018-07-15T08:43:48.645Z,48.61
2018-07-15T08:44:14.152Z,48.64
2018-07-15T08:44:39.816Z,48.64
2018-07-15T08:45:06.003Z,47.74
2018-07-15T08:45:31.590Z,47.57
2018-07-15T08:45:57.215Z,47.57
2018-07-15T08:46:22.870Z,47.26
2018-07-15T08:46:48.607Z,46.97
2018-07-15T08:47:14.114Z,47.38
2018-07-15T08:47:39.667Z,47.96
2018-07-15T08:48:05.207Z,48.54
2018-07-15T08:48:30.749Z,48.15
2018-07-15T08:48:56.808Z,48.54
2018-07-15T08:49:22.524Z,47.96
2018-07-15T08:49:48.136Z,47.57
2018-07-15T08:50:13.588Z,46.89
2018-07-15T08:50:39.100Z,46.72
2018-07-15T08:51:04.613Z,46.43
2018-07-15T08:51:30.106Z,46.53
2018-07-15T08:51:55.593Z,46.14
2018-07-15T08:52:49.028Z,45.75
2018-07-15T08:53:14.530Z,45.85
2018-07-15T08:53:40.040Z,45.73
2018-07-15T08:54:05.521Z,46.04
2018-07-15T08:54:31.016Z,46.33
2018-07-15T08:54:56.511Z,46.43
2018-07-15T08:55:22.019Z,46.04
2018-07-15T08:55:47.513Z,46.43
2018-07-15T08:56:13.045Z,46.14
2018-07-15T08:56:38.538Z,45.85
2018-07-15T08:57:04.028Z,45.37
2018-07-15T08:57:29.522Z,45.56
2018-07-15T08:57:55.042Z,45.27
2018-07-15T08:58:20.549Z,45.56
2018-07-15T08:58:46.029Z,45.56
2018-07-15T08:59:11.538Z,45.17
2018-07-15T08:59:37.028Z,45.37
2018-07-15T09:00:02.536Z,45.27
2018-07-15T09:00:28.031Z,45.27
2018-07-15T09:00:53.515Z,45.27
2018-07-15T09:01:19.014Z,45.17
2018-07-15T09:01:44.479Z,45.47
2018-07-15T09:02:09.984Z,44.4
2018-07-15T09:02:35.501Z,44.59
2018-07-15T09:03:01.025Z,44.01
2018-07-15T09:03:26.527Z,44.1
2018-07-15T09:03:52.014Z,44.2
2018-07-15T09:04:17.527Z,43.43
2018-07-15T09:04:43.049Z,43.72
2018-07-15T09:05:08.567Z,43.72
2018-07-15T09:05:34.085Z,43.13
2018-07-15T09:05:59.542Z,43.62
2018-07-15T09:06:25.065Z,43.43
2018-07-15T09:06:50.555Z,43.33
2018-07-15T09:07:16.068Z,43.43
2018-07-15T09:07:41.585Z,43.72
2018-07-15T09:08:07.096Z,44.01
2018-07-15T09:09:06.469Z,44.59
2018-07-15T09:09:31.965Z,44.1
2018-07-15T09:09:57.546Z,43.82
2018-07-15T09:10:22.981Z,43.13
2018-07-15T09:10:48.521Z,43.33
2018-07-15T09:11:14.033Z,42.65
2018-07-15T09:11:39.532Z,43.33
2018-07-15T09:12:05.007Z,43.82
2018-07-15T09:12:30.539Z,44.2
2018-07-15T09:12:56.020Z,44.1
2018-07-15T09:13:21.609Z,43.62
2018-07-15T09:13:47.101Z,43.13
2018-07-15T09:14:12.781Z,42.38
2018-07-15T09:14:38.290Z,42.55
2018-07-15T09:15:04.017Z,42.17
2018-07-15T09:15:30.379Z,42.36
2018-07-15T09:15:56.253Z,42.38
2018-07-15T09:16:21.648Z,42.55
2018-07-15T09:16:47.299Z,42.26
2018-07-15T09:17:12.751Z,41.58
2018-07-15T09:17:38.228Z,41.49
2018-07-15T09:18:03.714Z,41.58
2018-07-15T09:18:29.222Z,41.68
2018-07-15T09:18:54.761Z,41.49
2018-07-15T09:19:58.390Z,41.97
2018-07-15T09:20:23.894Z,41.95
2018-07-15T09:20:49.381Z,41.56
2018-07-15T09:21:14.894Z,41.08
2018-07-15T09:21:40.352Z,41.17
2018-07-15T09:22:05.897Z,41.27
2018-07-15T09:22:31.419Z,41.66
2018-07-15T09:22:56.959Z,42.54
2018-07-15T09:23:22.458Z,42.32
2018-07-15T09:23:47.940Z,42.05
2018-07-15T09:24:13.489Z,42.22
2018-07-15T09:24:39.041Z,42.24
2018-07-15T09:25:04.650Z,41.93
2018-07-15T09:25:30.180Z,42.22
2018-07-15T09:25:55.676Z,41.93
2018-07-15T09:26:21.147Z,42.22
2018-07-15T09:26:46.703Z,42.03
2018-07-15T09:27:12.370Z,41.83
2018-07-15T09:27:37.879Z,42.13
2018-07-15T09:28:03.400Z,42.9
2018-07-15T09:28:28.879Z,42.71
2018-07-15T09:28:54.384Z,42.51
2018-07-15T09:29:19.908Z,41.74
2018-07-15T09:29:45.582Z,41.74
2018-07-15T09:30:11.047Z,42.13
2018-07-15T09:30:36.563Z,41.83
2018-07-15T09:31:02.060Z,42.41
2018-07-15T09:31:27.635Z,41.45
2018-07-15T09:31:53.142Z,41.55
2018-07-15T09:32:18.596Z,41.35
2018-07-15T09:32:44.102Z,41.25
2018-07-15T09:33:09.593Z,40.77
2018-07-15T09:33:35.085Z,40.86
2018-07-15T09:34:00.556Z,40.67
2018-07-15T09:34:26.238Z,40.67
2018-07-15T09:34:51.915Z,41.25
2018-07-15T09:35:17.345Z,41.55
2018-07-15T09:35:42.858Z,41.74
2018-07-15T09:36:08.357Z,42.22
2018-07-15T09:36:36.581Z,42.13
2018-07-15T09:37:02.057Z,43.19
2018-07-15T09:37:27.599Z,43
2018-07-15T09:37:53.090Z,42.41
2018-07-15T09:38:18.575Z,42.9
2018-07-15T09:38:44.049Z,43.02
2018-07-15T09:39:09.530Z,42.82
2018-07-15T09:39:35.064Z,42.34
2018-07-15T09:40:00.543Z,42.54
2018-07-15T09:40:26.047Z,42.54
2018-07-15T09:40:51.547Z,42.05
2018-07-15T09:41:17.056Z,41.56
2018-07-15T09:41:42.550Z,40.5
2018-07-15T09:42:08.054Z,40.01
2018-07-15T09:42:33.557Z,39.43
2018-07-15T09:42:59.077Z,39.62
2018-07-15T09:43:24.586Z,39.34
2018-07-15T09:43:50.100Z,38.85
2018-07-15T09:44:15.606Z,38.85
2018-07-15T09:44:41.083Z,39.72
2018-07-15T09:45:06.594Z,39.72
2018-07-15T09:45:32.096Z,39.82
2018-07-15T09:45:57.631Z,40.31
2018-07-15T09:46:23.123Z,40.21
2018-07-15T09:46:48.638Z,41.17
2018-07-15T09:47:14.113Z,41.27
2018-07-15T09:47:39.667Z,41.35
2018-07-15T09:48:05.138Z,42.13